Time;durP1;ratioP1;P1;durP2;ratioP2;P2;SDS_P1;SDS_P2;PMS_P1;PMS_P2;Temp;Humidity;BMP_temperature;BMP_pressure;BME280_temperature;BME280_humidity;BME280_pressure;Samples;Min_cycle;Max_cycle;Signal;HPM_P1;HPM_P2
2023/02/06 00:04:22;;;;;;;13.25;7.38;;;2.90;99.90;;;;;;20826041;28;20048;-77
2023/02/06 00:14:22;;;;;;;11.93;6.78;;;2.90;99.90;;;;;;20825347;28;20089;-77
2023/02/06 00:24:23;;;;;;;9.77;4.97;;;2.90;99.90;;;;;;20824753;28;20061;-76
2023/02/06 00:34:24;;;;;;;7.63;4.35;;;2.90;99.90;;;;;;20824105;28;20401;-76
2023/02/06 00:44:25;;;;;;;7.50;4.45;;;2.90;99.90;;;;;;20813694;28;20040;-78
2023/02/06 00:54:26;;;;;;;14.30;5.30;;;2.90;99.90;;;;;;20824485;28;20427;-78
2023/02/06 01:04:26;;;;;;;8.32;4.95;;;2.90;99.90;;;;;;20824365;28;20451;-78
2023/02/06 01:14:27;;;;;;;11.77;5.63;;;2.90;99.90;;;;;;20824099;28;20033;-77
2023/02/06 01:24:28;;;;;;;8.93;4.80;;;2.80;99.90;;;;;;20825407;28;20172;-78
2023/02/06 01:34:29;;;;;;;6.75;4.45;;;2.90;99.90;;;;;;20825017;28;20021;-77
2023/02/06 01:44:31;;;;;;;11.38;5.60;;;2.90;99.90;;;;;;20836055;28;20369;-76
2023/02/06 01:54:33;;;;;;;8.85;5.10;;;2.90;99.90;;;;;;20836939;28;20036;-76
2023/02/06 02:04:34;;;;;;;7.40;4.53;;;2.90;99.90;;;;;;20834581;28;20036;-76
2023/02/06 02:14:38;;;;;;;6.75;4.18;;;3.00;99.90;;;;;;20833727;28;20039;-76
2023/02/06 02:25:00;;;;;;;7.60;4.38;;;3.00;99.90;;;;;;20833074;28;20120;-76
2023/02/06 02:35:16;;;;;;;8.63;5.28;;;3.00;99.90;;;;;;20841296;28;20402;-77
2023/02/06 02:45:17;;;;;;;9.00;5.53;;;3.00;99.90;;;;;;20831973;28;20037;-76
2023/02/06 02:55:21;;;;;;;10.30;5.28;;;3.00;99.90;;;;;;20830267;28;20026;-77
2023/02/06 03:05:27;;;;;;;10.45;5.93;;;3.00;99.90;;;;;;20768646;28;20037;-77
2023/02/06 03:15:45;;;;;;;10.43;6.40;;;2.90;99.90;;;;;;20829171;28;20025;-76
2023/02/06 03:25:49;;;;;;;11.95;7.03;;;2.90;99.90;;;;;;20829883;28;20025;-75
2023/02/06 03:35:50;;;;;;;10.73;5.65;;;3.00;99.90;;;;;;20828806;28;20026;-77
2023/02/06 03:45:59;;;;;;;9.60;5.63;;;2.90;99.90;;;;;;20828267;28;20026;-77
2023/02/06 03:56:06;;;;;;;12.43;6.97;;;2.90;99.90;;;;;;20827989;28;20078;-75
2023/02/06 04:06:07;;;;;;;12.43;6.80;;;2.90;99.90;;;;;;20863454;28;20037;-76
2023/02/06 04:16:08;;;;;;;12.93;6.53;;;2.90;99.90;;;;;;20908437;28;20052;-76
2023/02/06 04:26:09;;;;;;;14.10;7.53;;;2.80;99.90;;;;;;20898900;28;20082;-76
2023/02/06 04:36:09;;;;;;;12.20;6.43;;;2.90;99.90;;;;;;20815702;28;20099;-76
2023/02/06 04:46:10;;;;;;;12.65;7.32;;;2.80;99.90;;;;;;20751695;28;20109;-76
2023/02/06 04:56:11;;;;;;;14.43;7.53;;;2.90;99.90;;;;;;20828061;28;20033;-76
2023/02/06 05:06:13;;;;;;;15.45;8.10;;;2.90;99.90;;;;;;20824413;28;20095;-76
2023/02/06 05:16:15;;;;;;;15.43;7.43;;;2.90;99.90;;;;;;20833192;28;20029;-76
2023/02/06 05:26:16;;;;;;;14.95;8.25;;;2.80;99.90;;;;;;20839210;28;20079;-76
2023/02/06 05:36:17;;;;;;;12.55;7.05;;;2.80;99.90;;;;;;20837407;28;20053;-75
2023/02/06 05:46:18;;;;;;;10.30;5.68;;;2.70;99.90;;;;;;20837515;28;20037;-76
2023/02/06 05:56:19;;;;;;;9.20;5.40;;;2.70;99.90;;;;;;20837451;28;20033;-76
2023/02/06 06:06:20;;;;;;;14.50;6.68;;;2.70;99.90;;;;;;20836603;28;20030;-76
2023/02/06 06:16:20;;;;;;;13.35;6.78;;;2.70;99.90;;;;;;20837021;28;20116;-76
2023/02/06 06:26:21;;;;;;;12.05;7.05;;;2.60;99.90;;;;;;20837199;28;20087;-76
2023/02/06 06:36:22;;;;;;;11.18;6.38;;;2.60;99.90;;;;;;20832844;28;20050;-76
2023/02/06 06:46:23;;;;;;;13.60;7.10;;;2.60;99.90;;;;;;20830768;28;20035;-76
2023/02/06 06:56:24;;;;;;;14.32;7.43;;;2.60;99.90;;;;;;20827676;28;20504;-76
2023/02/06 07:06:25;;;;;;;14.32;7.25;;;2.50;99.90;;;;;;20830443;28;20026;-76
2023/02/06 07:16:26;;;;;;;17.10;8.65;;;2.50;99.90;;;;;;20829972;28;20030;-76
2023/02/06 07:26:27;;;;;;;20.80;9.70;;;2.50;99.90;;;;;;20829594;28;20029;-76
2023/02/06 07:36:28;;;;;;;16.48;9.52;;;2.50;99.90;;;;;;20828713;28;20025;-76
2023/02/06 07:46:29;;;;;;;20.05;9.10;;;2.50;99.90;;;;;;20828709;28;20022;-76
2023/02/06 07:56:29;;;;;;;15.73;8.15;;;2.60;99.90;;;;;;20827387;28;20064;-75
2023/02/06 08:06:30;;;;;;;15.13;7.97;;;2.70;99.90;;;;;;20851241;28;20114;-76
2023/02/06 08:16:31;;;;;;;13.63;7.88;;;2.90;99.90;;;;;;20906644;28;20040;-76
2023/02/06 08:26:32;;;;;;;18.13;8.68;;;3.10;99.90;;;;;;20907807;28;20032;-76
2023/02/06 08:36:33;;;;;;;16.67;8.15;;;3.20;99.90;;;;;;20882655;28;20091;-76
2023/02/06 08:46:34;;;;;;;21.25;7.38;;;3.40;99.90;;;;;;20829363;28;20405;-76
2023/02/06 08:56:36;;;;;;;13.57;6.40;;;3.40;99.90;;;;;;20845604;28;20489;-76
2023/02/06 09:06:40;;;;;;;13.05;6.82;;;3.60;99.90;;;;;;20840740;28;20396;-75
2023/02/06 09:16:41;;;;;;;9.88;5.18;;;3.80;99.90;;;;;;20839870;28;20029;-76
2023/02/06 09:26:42;;;;;;;10.95;5.75;;;4.00;99.90;;;;;;20839156;28;20071;-75
2023/02/06 09:36:43;;;;;;;11.90;6.10;;;4.10;99.90;;;;;;20864074;28;20036;-75
2023/02/06 09:47:12;;;;;;;11.25;6.32;;;4.00;99.90;;;;;;20919807;28;20492;-75
2023/02/06 09:57:30;;;;;;;11.27;5.90;;;4.20;99.90;;;;;;20918156;28;20087;-75
2023/02/06 10:08:16;;;;;;;16.27;7.18;;;4.40;99.90;;;;;;20886314;28;20026;-76
2023/02/06 10:18:23;;;;;;;13.55;5.90;;;5.00;99.90;;;;;;20834683;28;20116;-75
2023/02/06 10:28:28;;;;;;;15.60;5.90;;;5.70;99.90;;;;;;20834271;28;20038;-75
2023/02/06 10:38:53;;;;;;;12.55;5.93;;;6.30;99.90;;;;;;20834223;28;20120;-75
2023/02/06 10:49:01;;;;;;;12.65;5.95;;;6.90;99.90;;;;;;20833358;28;20393;-75
2023/02/06 10:59:27;;;;;;;8.98;4.30;;;6.40;99.90;;;;;;20832778;28;20029;-76
2023/02/06 11:09:28;;;;;;;16.73;5.75;;;8.40;99.90;;;;;;20825236;28;20041;-76
2023/02/06 11:19:37;;;;;;;8.90;4.80;;;7.60;99.90;;;;;;20831495;28;20494;-76
2023/02/06 11:29:44;;;;;;;7.53;3.90;;;6.90;99.90;;;;;;20829909;28;20045;-76
2023/02/06 11:39:45;;;;;;;13.60;5.40;;;6.10;99.90;;;;;;20829393;28;20037;-75
2023/02/06 11:49:46;;;;;;;10.80;5.43;;;6.00;99.90;;;;;;20828449;28;20048;-76
2023/02/06 11:59:57;;;;;;;;;;;6.20;99.90;;;;;;20803115;28;20515;-76
2023/02/06 12:09:58;;;;;;;12.07;5.57;;;6.40;99.90;;;;;;20827247;28;19916;-76
2023/02/06 12:20:04;;;;;;;;;;;5.60;99.90;;;;;;20826780;28;20036;-76
2023/02/06 12:30:24;;;;;;;10.95;4.25;;;5.60;99.90;;;;;;20826085;28;19935;-76
2023/02/06 12:40:47;;;;;;;8.82;4.18;;;5.70;99.90;;;;;;20824944;28;20076;-75
2023/02/06 12:51:17;;;;;;;9.07;4.55;;;5.80;99.90;;;;;;20828458;28;20037;-76
2023/02/06 13:01:46;;;;;;;10.95;5.00;;;6.00;99.90;;;;;;20831935;28;20494;-76
2023/02/06 13:11:47;;;;;;;7.97;3.95;;;5.80;99.90;;;;;;20824157;28;20048;-77
2023/02/06 13:22:13;;;;;;;11.55;4.32;;;6.10;99.90;;;;;;20824444;28;20042;-77
2023/02/06 13:32:14;;;;;;;10.07;4.47;;;6.00;99.90;;;;;;20824824;28;20496;-75
2023/02/06 13:42:47;;;;;;;10.48;4.43;;;6.10;99.90;;;;;;20839178;28;20037;-76
2023/02/06 13:52:57;;;;;;;7.30;3.95;;;6.00;99.90;;;;;;20841383;28;20034;-77
2023/02/06 14:03:17;;;;;;;9.00;4.55;;;5.70;99.90;;;;;;20839764;28;20056;-76
2023/02/06 14:13:21;;;;;;;7.53;3.65;;;5.50;99.90;;;;;;20839192;28;20064;-77
2023/02/06 14:23:43;;;;;;;7.13;3.78;;;5.40;99.90;;;;;;20871892;28;20104;-76
2023/02/06 14:34:09;;;;;;;7.68;3.58;;;5.40;99.90;;;;;;20919559;28;20033;-77
2023/02/06 14:44:17;;;;;;;11.30;3.78;;;5.10;99.90;;;;;;20837810;28;20025;-77
2023/02/06 14:54:31;;;;;;;7.90;3.78;;;4.80;99.90;;;;;;20819480;28;20049;-76
2023/02/06 15:04:32;;;;;;;5.50;3.15;;;4.40;99.90;;;;;;20835389;28;20439;-76
2023/02/06 15:14:34;;;;;;;7.63;3.97;;;4.30;99.90;;;;;;20830425;28;20109;-76
2023/02/06 15:24:57;;;;;;;7.30;3.88;;;4.00;99.90;;;;;;20865839;28;20095;-76
2023/02/06 15:35:00;;;;;;;8.13;3.65;;;3.80;99.90;;;;;;20899579;28;20563;-76
2023/02/06 15:45:01;;;;;;;6.93;3.50;;;3.70;99.90;;;;;;20803819;28;20111;-76
2023/02/06 15:55:03;;;;;;;13.75;5.88;;;3.70;99.90;;;;;;20862479;28;20396;-77
2023/02/06 16:05:06;;;;;;;8.80;5.85;;;3.60;99.90;;;;;;20809784;28;20572;-76
2023/02/06 16:16:00;;;;;;;15.30;7.50;;;3.20;99.90;;;;;;20769762;28;20448;-78
2023/02/06 16:26:18;;;;;;;12.32;7.05;;;3.30;99.90;;;;;;20777694;28;20044;-76
2023/02/06 16:36:22;;;;;;;12.63;6.80;;;2.90;99.90;;;;;;20826551;28;20030;-77
2023/02/06 16:46:24;;;;;;;10.88;5.97;;;2.90;99.90;;;;;;20843698;28;20055;-77
2023/02/06 16:56:24;;;;;;;12.88;6.22;;;2.80;99.90;;;;;;20789652;28;20485;-76
2023/02/06 17:06:28;;;;;;;10.65;6.00;;;2.60;99.90;;;;;;20776432;28;20037;-75
2023/02/06 17:16:30;;;;;;;11.23;5.60;;;2.60;99.90;;;;;;20838830;28;20029;-75
2023/02/06 17:26:30;;;;;;;10.10;5.00;;;2.40;99.90;;;;;;20838103;28;20116;-76
2023/02/06 17:36:38;;;;;;;10.27;4.50;;;2.40;99.90;;;;;;20830361;28;20053;-76
2023/02/06 17:46:39;;;;;;;7.60;4.45;;;2.00;99.90;;;;;;20788049;28;20034;-77
2023/02/06 17:56:40;;;;;;;9.52;4.68;;;1.90;99.90;;;;;;20830044;28;20041;-77
2023/02/06 18:06:40;;;;;;;8.10;4.32;;;1.90;99.90;;;;;;20838536;28;20025;-77
2023/02/06 18:16:41;;;;;;;7.97;5.00;;;1.90;99.90;;;;;;20837078;28;20028;-76
2023/02/06 18:26:42;;;;;;;12.43;5.95;;;1.70;99.90;;;;;;20838102;28;20440;-75
2023/02/06 18:36:43;;;;;;;9.15;5.28;;;1.50;99.90;;;;;;20833470;28;20052;-75
2023/02/06 18:46:44;;;;;;;13.18;5.30;;;1.50;99.90;;;;;;20856460;28;20025;-76
2023/02/06 18:56:44;;;;;;;10.55;5.10;;;1.50;99.90;;;;;;20841957;28;20117;-74
2023/02/06 19:06:46;;;;;;;7.90;4.65;;;1.40;99.90;;;;;;20811510;28;20484;-77
2023/02/06 19:16:49;;;;;;;10.68;4.97;;;1.50;99.90;;;;;;20793120;28;20029;-76
2023/02/06 19:26:50;;;;;;;7.50;4.65;;;1.50;99.90;;;;;;20800520;28;20488;-76
2023/02/06 19:36:52;;;;;;;7.80;4.07;;;1.40;99.90;;;;;;20803345;28;20048;-76
2023/02/06 19:46:53;;;;;;;9.70;4.90;;;1.40;99.90;;;;;;20828850;28;20436;-75
2023/02/06 19:56:54;;;;;;;8.30;3.72;;;1.30;99.90;;;;;;20797966;28;20116;-76
2023/02/06 20:06:55;;;;;;;7.72;3.85;;;1.00;99.90;;;;;;20817655;28;20072;-77
2023/02/06 20:16:56;;;;;;;10.52;4.93;;;0.90;99.90;;;;;;20814334;28;20090;-77
2023/02/06 20:27:00;;;;;;;13.05;4.35;;;0.80;99.90;;;;;;20817940;28;20061;-76
2023/02/06 20:37:01;;;;;;;12.18;4.53;;;0.70;99.90;;;;;;20821661;28;20034;-77
2023/02/06 20:47:02;;;;;;;9.55;4.10;;;0.60;99.90;;;;;;20813466;28;20029;-76
2023/02/06 20:57:03;;;;;;;24.77;6.80;;;0.50;99.90;;;;;;20806003;28;20075;-75
2023/02/06 21:07:04;;;;;;;14.60;5.03;;;0.70;99.90;;;;;;20797460;28;20025;-76
2023/02/06 21:17:05;;;;;;;9.00;3.13;;;0.70;99.90;;;;;;20807930;28;20064;-76
2023/02/06 21:27:05;;;;;;;6.28;2.80;;;0.70;99.90;;;;;;20803389;28;20030;-76
2023/02/06 21:37:06;;;;;;;5.63;2.85;;;0.80;99.90;;;;;;20811833;28;20030;-77
2023/02/06 21:47:08;;;;;;;5.53;2.95;;;0.80;99.90;;;;;;20787438;28;20029;-76
2023/02/06 21:57:09;;;;;;;6.78;3.33;;;0.80;99.90;;;;;;20793277;28;20029;-75
2023/02/06 22:07:12;;;;;;;12.45;4.70;;;0.70;99.90;;;;;;20796066;28;20122;-75
2023/02/06 22:17:12;;;;;;;7.30;3.00;;;0.60;99.90;;;;;;20796117;28;20061;-77
2023/02/06 22:27:13;;;;;;;7.35;3.45;;;0.50;99.90;;;;;;20800519;28;20079;-76
2023/02/06 22:37:14;;;;;;;8.15;3.92;;;0.50;99.90;;;;;;20832119;28;20021;-74
2023/02/06 22:47:16;;;;;;;11.65;3.60;;;0.60;99.90;;;;;;20837507;28;20029;-76
2023/02/06 22:57:16;;;;;;;9.95;3.78;;;0.60;99.90;;;;;;20818601;28;20033;-75
2023/02/06 23:07:17;;;;;;;8.90;4.75;;;0.50;99.90;;;;;;20819427;28;20399;-76
2023/02/06 23:17:18;;;;;;;10.38;4.72;;;0.30;99.90;;;;;;20834454;28;20064;-76
2023/02/06 23:27:19;;;;;;;6.90;4.32;;;0.30;99.90;;;;;;20828413;28;20033;-76
2023/02/06 23:37:20;;;;;;;16.30;4.32;;;0.20;99.90;;;;;;20803054;28;20040;-76
2023/02/06 23:47:21;;;;;;;8.05;4.50;;;0.10;99.90;;;;;;20829227;28;20030;-76
2023/02/06 23:57:22;;;;;;;11.80;4.70;;;0.10;99.90;;;;;;20827598;28;20128;-76
